»·PEaware :: SWA1157 KPHX-KLAS

SWA1157 :: KPHX-KLAS

FLIGHT INFORMATION

Flight Status: Arrived
Operator:
Southwest Airlines
More flights by this operator :: More flights under this callsign
Pilot: Sergei F. (8485)
Aircraft: BOEING 737-600
(B736)
More flights by this aircraft type
Origin: KPHX Phoenix Sky Harbor Intl
United States
Destination: KLAS Harry Reid Intl
United States
More flights between these airports :: More routes between these airports
Route: ZEPER2 RRSTA ELLDA RKSTR3
File this flight plan on PilotEdge
Remarks:
Altitude:
(Current/Filed)
28,000ft
Speed:
(Current/Filed)
476kts
Departed: 24-Nov-23 08:18 PM
Arrived: 24-Nov-23 09:10 PM
Distance/Time
Traveled:
221nm/0:52
Distance/Time
To Go:
Arrived

Flight Plot

Page will automatically refresh every two minutes.

Flight plan parsing failed; only flown route is shown


Map Options




Map Legend


Flown Route
Filed Route
Departure Airport
Arrival Airport
Navaid (VOR, NDB)
Fix

Horizontal Profiles

Position Reports

Time Latitude Longitude Heading Altitude Ground
Speed
24-Nov-23 19:40 33.434036 -111.997259 78 1123ft 0kts
24-Nov-23 19:41 33.434036 -111.997259 78 1123ft 0kts
24-Nov-23 19:42 33.434036 -111.997259 78 1123ft 0kts
24-Nov-23 19:43 33.434036 -111.997259 78 1123ft 0kts
24-Nov-23 19:44 33.434036 -111.997259 78 1123ft 0kts
24-Nov-23 19:45 33.434036 -111.997259 78 1123ft 0kts
24-Nov-23 19:46 33.434036 -111.997259 78 1123ft 0kts
24-Nov-23 19:47 33.434036 -111.997259 78 1123ft 0kts
24-Nov-23 19:48 33.434036 -111.997259 78 1123ft 0kts
24-Nov-23 19:49 33.434036 -111.997259 78 1123ft 0kts
24-Nov-23 19:50 33.434036 -111.997259 78 1123ft 0kts
24-Nov-23 19:51 33.434036 -111.997259 78 1123ft 0kts
24-Nov-23 19:52 33.434036 -111.997259 78 1123ft 0kts
24-Nov-23 19:53 33.434036 -111.997259 78 1123ft 0kts
24-Nov-23 19:54 33.434036 -111.997259 78 1123ft 0kts
24-Nov-23 19:55 33.434036 -111.997259 78 1123ft 0kts
24-Nov-23 19:56 33.434036 -111.997259 78 1123ft 0kts
24-Nov-23 19:57 33.434036 -111.997259 78 1123ft 0kts
24-Nov-23 19:58 33.434036 -111.997259 78 1123ft 0kts
24-Nov-23 19:59 33.434036 -111.997259 78 1122ft 0kts
24-Nov-23 20:00 33.434036 -111.997259 78 1122ft 0kts
24-Nov-23 20:01 33.434036 -111.997259 78 1122ft 0kts
24-Nov-23 20:02 33.434036 -111.997259 78 1122ft 0kts
24-Nov-23 20:03 33.434036 -111.997259 78 1122ft 0kts
24-Nov-23 20:04 33.434036 -111.997259 78 1122ft 0kts
24-Nov-23 20:05 33.434015 -111.997377 78 1113ft 2kts
24-Nov-23 20:06 33.433884 -111.997790 184 1115ft 2kts
24-Nov-23 20:07 33.433483 -111.997797 180 1119ft 0kts
24-Nov-23 20:08 33.433483 -111.997797 180 1122ft 0kts
24-Nov-23 20:09 33.433483 -111.997797 180 1122ft 0kts
24-Nov-23 20:10 33.433483 -111.997797 180 1122ft 0kts
24-Nov-23 20:11 33.433483 -111.997797 180 1122ft 0kts
24-Nov-23 20:12 33.433483 -111.997797 180 1122ft 0kts
24-Nov-23 20:13 33.433276 -111.997796 179 1119ft 3kts
24-Nov-23 20:14 33.432305 -111.998002 154 1118ft 3kts
24-Nov-23 20:15 33.432133 -111.995819 90 1122ft 9kts
24-Nov-23 20:16 33.431528 -111.993435 179 1117ft 8kts
24-Nov-23 20:17 33.431048 -112.001481 270 1123ft 106kts
24-Nov-23 20:18 33.431310 -112.052542 272 3307ft 153kts
24-Nov-23 20:19 33.432967 -112.112266 271 4741ft 229kts
24-Nov-23 20:20 33.446973 -112.188281 318 7867ft 254kts
24-Nov-23 20:21 33.521117 -112.196549 356 11274ft 283kts
24-Nov-23 20:22 33.609485 -112.203077 350 12878ft 367kts
24-Nov-23 20:23 33.710875 -112.230430 337 16015ft 376kts
24-Nov-23 20:24 33.813147 -112.264884 337 19128ft 387kts
24-Nov-23 20:25 33.918869 -112.299114 336 21811ft 398kts
24-Nov-23 20:26 34.026093 -112.336061 326 24208ft 397kts
24-Nov-23 20:27 34.111409 -112.417714 313 26250ft 395kts
24-Nov-23 20:28 34.195704 -112.503341 313 27930ft 397kts
24-Nov-23 20:29 34.279935 -112.588359 313 27962ft 393kts
24-Nov-23 20:30 34.364311 -112.673800 313 27958ft 395kts
24-Nov-23 20:31 34.448288 -112.759022 313 27956ft 391kts
24-Nov-23 20:32 34.531027 -112.843252 314 27951ft 390kts
24-Nov-23 20:33 34.614301 -112.928231 314 27959ft 390kts
24-Nov-23 20:34 34.697130 -113.012995 314 27951ft 390kts
24-Nov-23 20:35 34.778736 -113.099744 309 27960ft 386kts
24-Nov-23 20:36 34.852040 -113.194914 308 27969ft 385kts
24-Nov-23 20:37 34.925765 -113.288989 308 27963ft 385kts
24-Nov-23 20:38 34.999896 -113.383006 312 27972ft 386kts
24-Nov-23 20:39 35.083430 -113.466281 315 27979ft 382kts
24-Nov-23 20:40 35.165030 -113.547840 314 26226ft 368kts
24-Nov-23 20:41 35.241782 -113.625485 314 23854ft 353kts
24-Nov-23 20:42 35.316089 -113.700744 314 21803ft 332kts
24-Nov-23 20:43 35.390804 -113.776774 314 20973ft 353kts
24-Nov-23 20:44 35.466008 -113.853309 315 20148ft 352kts
24-Nov-23 20:45 35.541761 -113.930671 315 19298ft 354kts
24-Nov-23 20:46 35.617145 -114.007836 315 18446ft 354kts
24-Nov-23 20:47 35.692726 -114.085391 316 17492ft 343kts
24-Nov-23 20:48 35.759661 -114.156478 303 16718ft 293kts
24-Nov-23 20:49 35.797500 -114.241049 296 16112ft 287kts
24-Nov-23 20:50 35.834632 -114.328827 283 15392ft 286kts
24-Nov-23 20:51 35.828925 -114.425980 262 14751ft 287kts
24-Nov-23 20:52 35.818101 -114.524020 262 14081ft 289kts
24-Nov-23 20:53 35.807455 -114.621746 262 13401ft 288kts
24-Nov-23 20:54 35.796772 -114.719135 262 12721ft 285kts
24-Nov-23 20:55 35.786160 -114.815202 262 12104ft 281kts
24-Nov-23 20:56 35.775605 -114.910139 262 11430ft 280kts
24-Nov-23 20:57 35.771420 -115.005839 270 10777ft 281kts
24-Nov-23 20:58 35.771462 -115.101734 270 10107ft 275kts
24-Nov-23 20:59 35.772040 -115.191158 283 9431ft 249kts
24-Nov-23 21:00 35.811846 -115.258083 309 8918ft 245kts
24-Nov-23 21:01 35.855804 -115.322666 308 8333ft 246kts
24-Nov-23 21:02 35.912164 -115.350466 11 7463ft 233kts
24-Nov-23 21:03 35.971573 -115.332360 12 6247ft 206kts
24-Nov-23 21:04 36.029354 -115.316746 11 4779ft 195kts
24-Nov-23 21:05 36.067957 -115.285955 64 4196ft 150kts
24-Nov-23 21:06 36.073564 -115.238578 90 3505ft 137kts
24-Nov-23 21:07 36.073570 -115.191067 89 2803ft 138kts
24-Nov-23 21:08 36.073646 -115.148039 89 2119ft 79kts
24-Nov-23 21:09 36.075703 -115.137929 1 2082ft 14kts
24-Nov-23 21:10 36.078272 -115.136969 91 2074ft 11kts
24-Nov-23 21:11 36.079373 -115.136454 315 2072ft 0kts
24-Nov-23 21:12 36.080043 -115.137252 316 2072ft 4kts
24-Nov-23 21:13 36.080827 -115.136815 44 2072ft 0kts
24-Nov-23 21:14 36.080827 -115.136815 44 2072ft 0kts
24-Nov-23 21:15 36.080827 -115.136815 44 2072ft 0kts
24-Nov-23 21:16 36.080827 -115.136815 44 2072ft 0kts
24-Nov-23 21:17 36.080827 -115.136815 44 2072ft 0kts

Navigation Log

Ident Type
Flight plan parsing failed, navigation log unavailable